ESNN/SDL METAR and TAF weather

Enter ICAO airport designator
Station Type Date Time Source
ESNN METAR 2018/09/21 22:50 UTC NOAA

ESNN 212250Z AUTO 13013KT 9999 NCD 11/10 Q0984


Station Type Date Time Source
ESNN Decoded METAR 2018/09/21 22:50 UTC NOAA

Sundsvall-Harnosand Flygplats, Sweden (ESNN) 62-32N 017-27E 10M
Sep 21, 2018 - 06:50 PM EDT / 2018.09.21 2250 UTC
Wind: from the SE (130 degrees) at 15 MPH (13 KT):0
Visibility: greater than 7 mile(s):0
Temperature: 51 F (11 C)
Dew Point: 50 F (10 C)
Relative Humidity: 93%
Pressure (altimeter): 29.06 in. Hg (0984 hPa)
ob: ESNN 212250Z AUTO 13013KT 9999 NCD 11/10 Q0984
cycle: 23

Station Type Date Time Source
ESNN TAF 2016/05/29 09:33 UTC NOAA

TAF TAF ESNN 290830Z 2909/3018 07006KT 9999 SCT045
BECMG 2913/2915 14010KT


Example: see airport list